sensor_id;sensor_type;location;lat;lon;timestamp;P1;durP1;ratioP1;P2;durP2;ratioP2
8464;SDS011;72380;52.680;13.606;2024-03-25T00:01:10;2.47;;;1.57;;
8464;SDS011;72380;52.680;13.606;2024-03-25T00:03:38;2.93;;;1.73;;
8464;SDS011;72380;52.680;13.606;2024-03-25T00:06:04;1.53;;;1.30;;
8464;SDS011;72380;52.680;13.606;2024-03-25T00:08:32;1.50;;;1.40;;
8464;SDS011;72380;52.680;13.606;2024-03-25T00:10:58;1.63;;;1.53;;
8464;SDS011;72380;52.680;13.606;2024-03-25T00:13:27;2.00;;;1.67;;
8464;SDS011;72380;52.680;13.606;2024-03-25T00:15:53;2.40;;;1.63;;
8464;SDS011;72380;52.680;13.606;2024-03-25T00:18:20;3.10;;;1.53;;
8464;SDS011;72380;52.680;13.606;2024-03-25T00:20:48;5.47;;;1.70;;
8464;SDS011;72380;52.680;13.606;2024-03-25T00:23:14;2.20;;;1.73;;
8464;SDS011;72380;52.680;13.606;2024-03-25T00:25:42;2.33;;;1.87;;
8464;SDS011;72380;52.680;13.606;2024-03-25T00:28:08;2.17;;;1.70;;
8464;SDS011;72380;52.680;13.606;2024-03-25T00:30:37;2.73;;;1.73;;
8464;SDS011;72380;52.680;13.606;2024-03-25T00:33:03;1.90;;;1.70;;
8464;SDS011;72380;52.680;13.606;2024-03-25T00:35:31;2.50;;;2.03;;
8464;SDS011;72380;52.680;13.606;2024-03-25T00:37:58;1.70;;;1.60;;
8464;SDS011;72380;52.680;13.606;2024-03-25T00:40:27;1.80;;;1.57;;
8464;SDS011;72380;52.680;13.606;2024-03-25T00:42:54;2.30;;;1.77;;
8464;SDS011;72380;52.680;13.606;2024-03-25T00:45:21;1.97;;;1.77;;
8464;SDS011;72380;52.680;13.606;2024-03-25T00:47:49;2.73;;;1.93;;
8464;SDS011;72380;52.680;13.606;2024-03-25T00:50:16;3.10;;;1.93;;
8464;SDS011;72380;52.680;13.606;2024-03-25T00:52:42;3.30;;;1.93;;
8464;SDS011;72380;52.680;13.606;2024-03-25T00:55:10;2.30;;;1.60;;
8464;SDS011;72380;52.680;13.606;2024-03-25T00:57:36;2.00;;;1.50;;
8464;SDS011;72380;52.680;13.606;2024-03-25T01:00:04;3.67;;;2.50;;
8464;SDS011;72380;52.680;13.606;2024-03-25T01:02:30;3.23;;;2.07;;
8464;SDS011;72380;52.680;13.606;2024-03-25T01:04:59;2.43;;;1.70;;
8464;SDS011;72380;52.680;13.606;2024-03-25T01:07:25;2.20;;;1.60;;
8464;SDS011;72380;52.680;13.606;2024-03-25T01:09:53;4.60;;;2.37;;
8464;SDS011;72380;52.680;13.606;2024-03-25T01:12:19;1.87;;;1.60;;
8464;SDS011;72380;52.680;13.606;2024-03-25T01:14:46;2.10;;;1.90;;
8464;SDS011;72380;52.680;13.606;2024-03-25T01:17:13;1.70;;;1.60;;
8464;SDS011;72380;52.680;13.606;2024-03-25T01:19:40;2.20;;;1.57;;
8464;SDS011;72380;52.680;13.606;2024-03-25T01:22:08;3.00;;;2.07;;
8464;SDS011;72380;52.680;13.606;2024-03-25T01:24:35;2.47;;;1.57;;
8464;SDS011;72380;52.680;13.606;2024-03-25T01:27:02;2.00;;;1.80;;
8464;SDS011;72380;52.680;13.606;2024-03-25T01:29:29;2.03;;;1.83;;
8464;SDS011;72380;52.680;13.606;2024-03-25T01:31:55;2.30;;;1.80;;
8464;SDS011;72380;52.680;13.606;2024-03-25T01:34:24;3.03;;;2.13;;
8464;SDS011;72380;52.680;13.606;2024-03-25T01:36:51;2.80;;;2.00;;
8464;SDS011;72380;52.680;13.606;2024-03-25T01:39:20;2.70;;;2.20;;
8464;SDS011;72380;52.680;13.606;2024-03-25T01:41:47;3.20;;;2.30;;
8464;SDS011;72380;52.680;13.606;2024-03-25T01:44:14;3.60;;;2.30;;
8464;SDS011;72380;52.680;13.606;2024-03-25T01:46:41;4.03;;;2.37;;
8464;SDS011;72380;52.680;13.606;2024-03-25T01:49:09;3.87;;;2.10;;
8464;SDS011;72380;52.680;13.606;2024-03-25T01:51:36;2.30;;;2.10;;
8464;SDS011;72380;52.680;13.606;2024-03-25T01:54:03;3.23;;;2.00;;
8464;SDS011;72380;52.680;13.606;2024-03-25T01:56:33;3.07;;;2.40;;
8464;SDS011;72380;52.680;13.606;2024-03-25T01:59:00;3.57;;;2.10;;
8464;SDS011;72380;52.680;13.606;2024-03-25T02:01:27;2.70;;;2.27;;
8464;SDS011;72380;52.680;13.606;2024-03-25T02:03:55;3.90;;;2.73;;
8464;SDS011;72380;52.680;13.606;2024-03-25T02:06:21;4.30;;;2.20;;
8464;SDS011;72380;52.680;13.606;2024-03-25T02:08:51;2.97;;;2.47;;
8464;SDS011;72380;52.680;13.606;2024-03-25T02:11:18;6.63;;;2.83;;
8464;SDS011;72380;52.680;13.606;2024-03-25T02:13:46;3.00;;;2.67;;
8464;SDS011;72380;52.680;13.606;2024-03-25T02:16:13;3.63;;;2.27;;
8464;SDS011;72380;52.680;13.606;2024-03-25T02:18:40;3.80;;;2.40;;
8464;SDS011;72380;52.680;13.606;2024-03-25T02:21:06;2.67;;;2.43;;
8464;SDS011;72380;52.680;13.606;2024-03-25T02:23:34;7.30;;;2.77;;
8464;SDS011;72380;52.680;13.606;2024-03-25T02:26:02;3.33;;;2.27;;
8464;SDS011;72380;52.680;13.606;2024-03-25T02:28:29;5.00;;;3.47;;
8464;SDS011;72380;52.680;13.606;2024-03-25T02:30:55;4.83;;;2.43;;
8464;SDS011;72380;52.680;13.606;2024-03-25T02:33:23;3.63;;;2.20;;
8464;SDS011;72380;52.680;13.606;2024-03-25T02:35:49;3.00;;;2.70;;
8464;SDS011;72380;52.680;13.606;2024-03-25T02:38:17;3.60;;;2.53;;
8464;SDS011;72380;52.680;13.606;2024-03-25T02:40:44;5.73;;;2.63;;
8464;SDS011;72380;52.680;13.606;2024-03-25T02:43:13;4.80;;;2.73;;
8464;SDS011;72380;52.680;13.606;2024-03-25T02:45:40;7.30;;;3.07;;
8464;SDS011;72380;52.680;13.606;2024-03-25T02:48:07;3.70;;;2.30;;
8464;SDS011;72380;52.680;13.606;2024-03-25T02:50:34;5.63;;;3.20;;
8464;SDS011;72380;52.680;13.606;2024-03-25T02:53:01;3.80;;;2.50;;
8464;SDS011;72380;52.680;13.606;2024-03-25T02:55:27;4.47;;;2.47;;
8464;SDS011;72380;52.680;13.606;2024-03-25T02:57:55;5.03;;;2.53;;
8464;SDS011;72380;52.680;13.606;2024-03-25T03:00:22;3.87;;;2.63;;
8464;SDS011;72380;52.680;13.606;2024-03-25T03:02:50;3.70;;;2.67;;
8464;SDS011;72380;52.680;13.606;2024-03-25T03:05:16;3.03;;;2.23;;
8464;SDS011;72380;52.680;13.606;2024-03-25T03:07:43;2.87;;;2.30;;
8464;SDS011;72380;52.680;13.606;2024-03-25T03:10:10;2.73;;;2.00;;
8464;SDS011;72380;52.680;13.606;2024-03-25T03:12:37;3.30;;;2.33;;
8464;SDS011;72380;52.680;13.606;2024-03-25T03:15:04;2.77;;;2.03;;
8464;SDS011;72380;52.680;13.606;2024-03-25T03:17:33;2.70;;;2.07;;
8464;SDS011;72380;52.680;13.606;2024-03-25T03:19:59;2.53;;;2.33;;
8464;SDS011;72380;52.680;13.606;2024-03-25T03:22:26;2.83;;;1.90;;
8464;SDS011;72380;52.680;13.606;2024-03-25T03:24:53;2.70;;;1.83;;
8464;SDS011;72380;52.680;13.606;2024-03-25T03:27:20;2.80;;;2.13;;
8464;SDS011;72380;52.680;13.606;2024-03-25T03:29:46;4.00;;;1.80;;
8464;SDS011;72380;52.680;13.606;2024-03-25T03:32:14;3.60;;;1.90;;
8464;SDS011;72380;52.680;13.606;2024-03-25T03:34:42;3.07;;;2.00;;
8464;SDS011;72380;52.680;13.606;2024-03-25T03:37:09;1.83;;;1.70;;
8464;SDS011;72380;52.680;13.606;2024-03-25T03:39:35;2.23;;;2.03;;
8464;SDS011;72380;52.680;13.606;2024-03-25T03:42:03;2.93;;;1.53;;
8464;SDS011;72380;52.680;13.606;2024-03-25T03:44:29;2.30;;;1.83;;
8464;SDS011;72380;52.680;13.606;2024-03-25T03:46:57;3.60;;;2.20;;
8464;SDS011;72380;52.680;13.606;2024-03-25T03:49:23;2.40;;;1.97;;
8464;SDS011;72380;52.680;13.606;2024-03-25T03:51:52;3.57;;;1.80;;
8464;SDS011;72380;52.680;13.606;2024-03-25T03:54:18;2.30;;;1.90;;
8464;SDS011;72380;52.680;13.606;2024-03-25T03:56:45;2.50;;;1.70;;
8464;SDS011;72380;52.680;13.606;2024-03-25T03:59:12;2.83;;;1.80;;
8464;SDS011;72380;52.680;13.606;2024-03-25T04:01:39;2.93;;;1.87;;
8464;SDS011;72380;52.680;13.606;2024-03-25T04:04:05;2.50;;;1.97;;
8464;SDS011;72380;52.680;13.606;2024-03-25T04:06:33;5.13;;;1.77;;
8464;SDS011;72380;52.680;13.606;2024-03-25T04:09:00;2.13;;;1.93;;
8464;SDS011;72380;52.680;13.606;2024-03-25T04:11:28;2.37;;;1.80;;
8464;SDS011;72380;52.680;13.606;2024-03-25T04:13:54;2.23;;;1.83;;
8464;SDS011;72380;52.680;13.606;2024-03-25T04:16:21;5.50;;;2.30;;
8464;SDS011;72380;52.680;13.606;2024-03-25T04:18:48;2.70;;;2.07;;
8464;SDS011;72380;52.680;13.606;2024-03-25T04:21:15;2.63;;;1.80;;
8464;SDS011;72380;52.680;13.606;2024-03-25T04:23:41;3.73;;;2.10;;
8464;SDS011;72380;52.680;13.606;2024-03-25T04:26:11;2.67;;;1.90;;
8464;SDS011;72380;52.680;13.606;2024-03-25T04:28:38;1.67;;;1.37;;
8464;SDS011;72380;52.680;13.606;2024-03-25T04:31:07;2.70;;;2.10;;
8464;SDS011;72380;52.680;13.606;2024-03-25T04:33:33;4.80;;;2.33;;
8464;SDS011;72380;52.680;13.606;2024-03-25T04:36:01;3.50;;;2.13;;
8464;SDS011;72380;52.680;13.606;2024-03-25T04:38:27;4.97;;;1.90;;
8464;SDS011;72380;52.680;13.606;2024-03-25T04:40:54;2.27;;;1.73;;
8464;SDS011;72380;52.680;13.606;2024-03-25T04:43:21;3.33;;;1.33;;
8464;SDS011;72380;52.680;13.606;2024-03-25T04:45:48;3.50;;;2.00;;
8464;SDS011;72380;52.680;13.606;2024-03-25T04:48:14;1.77;;;1.40;;
8464;SDS011;72380;52.680;13.606;2024-03-25T04:50:41;1.70;;;1.37;;
8464;SDS011;72380;52.680;13.606;2024-03-25T04:53:07;2.73;;;1.87;;
8464;SDS011;72380;52.680;13.606;2024-03-25T04:55:34;1.97;;;1.77;;
8464;SDS011;72380;52.680;13.606;2024-03-25T04:58:00;1.70;;;1.57;;
8464;SDS011;72380;52.680;13.606;2024-03-25T05:00:28;2.20;;;1.63;;
8464;SDS011;72380;52.680;13.606;2024-03-25T05:02:54;2.47;;;1.40;;
8464;SDS011;72380;52.680;13.606;2024-03-25T05:05:21;2.23;;;1.80;;
8464;SDS011;72380;52.680;13.606;2024-03-25T05:07:47;2.03;;;1.60;;
8464;SDS011;72380;52.680;13.606;2024-03-25T05:10:14;2.00;;;1.60;;
8464;SDS011;72380;52.680;13.606;2024-03-25T05:12:40;1.97;;;1.73;;
8464;SDS011;72380;52.680;13.606;2024-03-25T05:15:07;4.17;;;1.90;;
8464;SDS011;72380;52.680;13.606;2024-03-25T05:17:34;3.10;;;1.97;;
8464;SDS011;72380;52.680;13.606;2024-03-25T05:20:01;4.37;;;1.50;;
8464;SDS011;72380;52.680;13.606;2024-03-25T05:22:29;4.07;;;1.87;;
8464;SDS011;72380;52.680;13.606;2024-03-25T05:24:55;1.80;;;1.70;;
8464;SDS011;72380;52.680;13.606;2024-03-25T05:27:22;2.33;;;1.30;;
8464;SDS011;72380;52.680;13.606;2024-03-25T05:29:48;2.13;;;1.83;;
8464;SDS011;72380;52.680;13.606;2024-03-25T05:32:15;1.60;;;1.20;;
8464;SDS011;72380;52.680;13.606;2024-03-25T05:34:43;1.57;;;1.03;;
8464;SDS011;72380;52.680;13.606;2024-03-25T05:37:09;4.43;;;1.40;;
8464;SDS011;72380;52.680;13.606;2024-03-25T05:39:36;1.50;;;1.40;;
8464;SDS011;72380;52.680;13.606;2024-03-25T05:42:02;1.50;;;1.03;;
8464;SDS011;72380;52.680;13.606;2024-03-25T05:44:29;1.30;;;1.20;;
8464;SDS011;72380;52.680;13.606;2024-03-25T05:46:56;2.63;;;1.50;;
8464;SDS011;72380;52.680;13.606;2024-03-25T05:49:22;1.30;;;1.10;;
8464;SDS011;72380;52.680;13.606;2024-03-25T05:51:50;1.60;;;1.30;;
8464;SDS011;72380;52.680;13.606;2024-03-25T05:54:16;1.13;;;1.03;;
8464;SDS011;72380;52.680;13.606;2024-03-25T05:56:43;1.37;;;1.20;;
8464;SDS011;72380;52.680;13.606;2024-03-25T05:59:09;2.50;;;1.60;;
8464;SDS011;72380;52.680;13.606;2024-03-25T06:01:36;2.47;;;1.57;;
8464;SDS011;72380;52.680;13.606;2024-03-25T06:04:02;2.43;;;1.73;;
8464;SDS011;72380;52.680;13.606;2024-03-25T06:06:29;2.03;;;1.83;;
8464;SDS011;72380;52.680;13.606;2024-03-25T06:08:57;5.07;;;2.07;;
8464;SDS011;72380;52.680;13.606;2024-03-25T06:11:23;2.00;;;1.63;;
8464;SDS011;72380;52.680;13.606;2024-03-25T06:13:53;2.93;;;1.80;;
8464;SDS011;72380;52.680;13.606;2024-03-25T06:16:19;3.20;;;1.40;;
8464;SDS011;72380;52.680;13.606;2024-03-25T06:18:45;2.00;;;1.57;;
8464;SDS011;72380;52.680;13.606;2024-03-25T06:21:12;5.57;;;1.37;;
8464;SDS011;72380;52.680;13.606;2024-03-25T06:23:38;3.07;;;1.63;;
8464;SDS011;72380;52.680;13.606;2024-03-25T06:26:06;1.83;;;1.40;;
8464;SDS011;72380;52.680;13.606;2024-03-25T06:28:33;3.37;;;1.57;;
8464;SDS011;72380;52.680;13.606;2024-03-25T06:30:59;2.03;;;1.80;;
8464;SDS011;72380;52.680;13.606;2024-03-25T06:33:44;3.53;;;1.53;;
8464;SDS011;72380;52.680;13.606;2024-03-25T06:36:29;5.23;;;1.63;;
8464;SDS011;72380;52.680;13.606;2024-03-25T06:38:55;2.20;;;1.63;;
8464;SDS011;72380;52.680;13.606;2024-03-25T06:41:23;3.87;;;1.80;;
8464;SDS011;72380;52.680;13.606;2024-03-25T06:43:49;3.67;;;1.70;;
8464;SDS011;72380;52.680;13.606;2024-03-25T06:46:16;2.50;;;1.63;;
8464;SDS011;72380;52.680;13.606;2024-03-25T06:48:42;5.97;;;1.43;;
8464;SDS011;72380;52.680;13.606;2024-03-25T06:51:09;2.43;;;1.70;;
8464;SDS011;72380;52.680;13.606;2024-03-25T06:53:35;1.83;;;1.63;;
8464;SDS011;72380;52.680;13.606;2024-03-25T06:56:02;2.57;;;1.67;;
8464;SDS011;72380;52.680;13.606;2024-03-25T06:58:31;0.90;;;0.90;;
8464;SDS011;72380;52.680;13.606;2024-03-25T07:01:03;4.93;;;1.83;;
8464;SDS011;72380;52.680;13.606;2024-03-25T07:03:30;1.60;;;1.50;;
8464;SDS011;72380;52.680;13.606;2024-03-25T07:05:56;4.97;;;1.60;;
8464;SDS011;72380;52.680;13.606;2024-03-25T07:08:23;2.17;;;1.50;;
8464;SDS011;72380;52.680;13.606;2024-03-25T07:10:49;2.00;;;1.50;;
8464;SDS011;72380;52.680;13.606;2024-03-25T07:13:16;2.40;;;1.50;;
8464;SDS011;72380;52.680;13.606;2024-03-25T07:15:44;1.87;;;1.70;;
8464;SDS011;72380;52.680;13.606;2024-03-25T07:18:10;2.63;;;1.70;;
8464;SDS011;72380;52.680;13.606;2024-03-25T07:20:37;2.77;;;1.60;;
8464;SDS011;72380;52.680;13.606;2024-03-25T07:23:03;2.50;;;2.10;;
8464;SDS011;72380;52.680;13.606;2024-03-25T07:25:30;1.43;;;1.23;;
8464;SDS011;72380;52.680;13.606;2024-03-25T07:27:57;2.27;;;1.80;;
8464;SDS011;72380;52.680;13.606;2024-03-25T07:30:23;2.90;;;1.40;;
8464;SDS011;72380;52.680;13.606;2024-03-25T07:32:51;1.70;;;1.50;;
8464;SDS011;72380;52.680;13.606;2024-03-25T07:35:18;2.30;;;1.70;;
8464;SDS011;72380;52.680;13.606;2024-03-25T07:37:44;4.07;;;2.80;;
8464;SDS011;72380;52.680;13.606;2024-03-25T07:40:11;4.00;;;1.60;;
8464;SDS011;72380;52.680;13.606;2024-03-25T07:42:37;3.47;;;1.57;;
8464;SDS011;72380;52.680;13.606;2024-03-25T07:45:04;1.73;;;1.60;;
8464;SDS011;72380;52.680;13.606;2024-03-25T07:47:30;6.30;;;2.00;;
8464;SDS011;72380;52.680;13.606;2024-03-25T07:49:58;3.67;;;1.70;;
8464;SDS011;72380;52.680;13.606;2024-03-25T07:52:25;2.17;;;1.60;;
8464;SDS011;72380;52.680;13.606;2024-03-25T07:54:51;9.00;;;2.60;;
8464;SDS011;72380;52.680;13.606;2024-03-25T07:57:18;2.13;;;1.43;;
8464;SDS011;72380;52.680;13.606;2024-03-25T07:59:44;1.90;;;1.67;;
8464;SDS011;72380;52.680;13.606;2024-03-25T08:02:11;2.67;;;1.60;;
8464;SDS011;72380;52.680;13.606;2024-03-25T08:04:37;4.17;;;1.60;;
8464;SDS011;72380;52.680;13.606;2024-03-25T08:07:05;1.77;;;1.57;;
8464;SDS011;72380;52.680;13.606;2024-03-25T08:09:32;3.03;;;1.40;;
8464;SDS011;72380;52.680;13.606;2024-03-25T08:11:58;2.47;;;2.27;;
8464;SDS011;72380;52.680;13.606;2024-03-25T08:14:25;2.10;;;1.50;;
8464;SDS011;72380;52.680;13.606;2024-03-25T08:16:51;2.33;;;2.00;;
8464;SDS011;72380;52.680;13.606;2024-03-25T08:19:18;1.57;;;1.47;;
8464;SDS011;72380;52.680;13.606;2024-03-25T08:21:44;3.70;;;1.83;;
8464;SDS011;72380;52.680;13.606;2024-03-25T08:24:13;2.77;;;1.77;;
8464;SDS011;72380;52.680;13.606;2024-03-25T08:26:40;3.07;;;1.97;;
8464;SDS011;72380;52.680;13.606;2024-03-25T08:29:06;2.60;;;1.67;;
8464;SDS011;72380;52.680;13.606;2024-03-25T08:31:33;7.27;;;2.13;;
8464;SDS011;72380;52.680;13.606;2024-03-25T08:33:59;2.77;;;1.70;;
8464;SDS011;72380;52.680;13.606;2024-03-25T08:36:25;3.97;;;1.80;;
8464;SDS011;72380;52.680;13.606;2024-03-25T08:38:52;3.20;;;2.10;;
8464;SDS011;72380;52.680;13.606;2024-03-25T08:41:20;2.13;;;1.77;;
8464;SDS011;72380;52.680;13.606;2024-03-25T08:43:46;2.03;;;1.50;;
8464;SDS011;72380;52.680;13.606;2024-03-25T08:46:13;2.27;;;1.87;;
8464;SDS011;72380;52.680;13.606;2024-03-25T08:48:39;6.17;;;1.80;;
8464;SDS011;72380;52.680;13.606;2024-03-25T08:51:05;8.43;;;1.70;;
8464;SDS011;72380;52.680;13.606;2024-03-25T08:53:32;2.97;;;2.10;;
8464;SDS011;72380;52.680;13.606;2024-03-25T08:55:58;1.57;;;1.47;;
8464;SDS011;72380;52.680;13.606;2024-03-25T08:58:26;7.67;;;2.37;;
8464;SDS011;72380;52.680;13.606;2024-03-25T09:00:52;2.83;;;1.70;;
8464;SDS011;72380;52.680;13.606;2024-03-25T09:03:19;2.33;;;1.60;;
8464;SDS011;72380;52.680;13.606;2024-03-25T09:05:46;2.10;;;1.90;;
8464;SDS011;72380;52.680;13.606;2024-03-25T09:08:12;2.33;;;1.50;;
8464;SDS011;72380;52.680;13.606;2024-03-25T09:10:39;1.87;;;1.53;;
8464;SDS011;72380;52.680;13.606;2024-03-25T09:13:40;2.53;;;1.87;;
8464;SDS011;72380;52.680;13.606;2024-03-25T09:16:06;1.80;;;1.53;;
8464;SDS011;72380;52.680;13.606;2024-03-25T09:18:32;3.07;;;2.07;;
8464;SDS011;72380;52.680;13.606;2024-03-25T09:20:59;2.57;;;1.30;;
8464;SDS011;72380;52.680;13.606;2024-03-25T09:23:25;1.40;;;1.30;;
8464;SDS011;72380;52.680;13.606;2024-03-25T09:25:52;1.63;;;1.50;;
8464;SDS011;72380;52.680;13.606;2024-03-25T09:28:18;2.13;;;1.83;;
8464;SDS011;72380;52.680;13.606;2024-03-25T09:30:47;4.17;;;1.47;;
8464;SDS011;72380;52.680;13.606;2024-03-25T09:33:13;5.63;;;1.50;;
8464;SDS011;72380;52.680;13.606;2024-03-25T09:35:40;1.47;;;1.33;;
8464;SDS011;72380;52.680;13.606;2024-03-25T09:38:06;1.93;;;1.43;;
8464;SDS011;72380;52.680;13.606;2024-03-25T09:40:33;2.07;;;1.87;;
8464;SDS011;72380;52.680;13.606;2024-03-25T09:43:02;2.63;;;1.90;;
8464;SDS011;72380;52.680;13.606;2024-03-25T09:45:29;4.07;;;1.70;;
8464;SDS011;72380;52.680;13.606;2024-03-25T09:47:57;2.03;;;1.70;;
8464;SDS011;72380;52.680;13.606;2024-03-25T09:50:23;3.23;;;1.43;;
8464;SDS011;72380;52.680;13.606;2024-03-25T09:52:50;2.23;;;1.53;;
8464;SDS011;72380;52.680;13.606;2024-03-25T09:55:17;3.83;;;1.50;;
8464;SDS011;72380;52.680;13.606;2024-03-25T09:57:44;1.40;;;1.30;;
8464;SDS011;72380;52.680;13.606;2024-03-25T10:00:11;4.63;;;2.47;;
8464;SDS011;72380;52.680;13.606;2024-03-25T10:02:38;2.20;;;1.40;;
8464;SDS011;72380;52.680;13.606;2024-03-25T10:05:06;2.60;;;1.67;;
8464;SDS011;72380;52.680;13.606;2024-03-25T10:07:32;1.70;;;1.60;;
8464;SDS011;72380;52.680;13.606;2024-03-25T10:09:59;3.13;;;1.77;;
8464;SDS011;72380;52.680;13.606;2024-03-25T10:12:25;3.50;;;1.70;;
8464;SDS011;72380;52.680;13.606;2024-03-25T10:14:52;1.60;;;1.50;;
8464;SDS011;72380;52.680;13.606;2024-03-25T10:17:18;1.70;;;1.47;;
8464;SDS011;72380;52.680;13.606;2024-03-25T10:19:45;2.03;;;1.50;;
8464;SDS011;72380;52.680;13.606;2024-03-25T10:22:12;2.17;;;1.50;;
8464;SDS011;72380;52.680;13.606;2024-03-25T10:24:39;2.80;;;1.67;;
8464;SDS011;72380;52.680;13.606;2024-03-25T10:27:09;2.83;;;1.60;;
8464;SDS011;72380;52.680;13.606;2024-03-25T10:29:35;2.37;;;1.90;;
8464;SDS011;72380;52.680;13.606;2024-03-25T10:32:02;2.07;;;1.87;;
8464;SDS011;72380;52.680;13.606;2024-03-25T10:34:28;1.97;;;1.40;;
8464;SDS011;72380;52.680;13.606;2024-03-25T10:36:56;2.07;;;1.50;;
8464;SDS011;72380;52.680;13.606;2024-03-25T10:39:25;2.43;;;1.37;;
8464;SDS011;72380;52.680;13.606;2024-03-25T10:41:54;3.10;;;1.93;;
8464;SDS011;72380;52.680;13.606;2024-03-25T10:44:22;1.73;;;1.63;;
8464;SDS011;72380;52.680;13.606;2024-03-25T10:46:48;6.83;;;1.70;;
8464;SDS011;72380;52.680;13.606;2024-03-25T10:49:16;1.60;;;1.33;;
8464;SDS011;72380;52.680;13.606;2024-03-25T10:51:46;1.43;;;1.27;;
8464;SDS011;72380;52.680;13.606;2024-03-25T10:54:14;2.33;;;1.20;;
8464;SDS011;72380;52.680;13.606;2024-03-25T10:56:42;1.67;;;1.30;;
8464;SDS011;72380;52.680;13.606;2024-03-25T10:59:09;2.30;;;1.53;;
8464;SDS011;72380;52.680;13.606;2024-03-25T11:01:36;1.43;;;0.90;;
8464;SDS011;72380;52.680;13.606;2024-03-25T11:04:03;1.60;;;0.80;;
8464;SDS011;72380;52.680;13.606;2024-03-25T11:06:30;0.70;;;0.70;;
8464;SDS011;72380;52.680;13.606;2024-03-25T11:08:58;1.23;;;1.13;;
8464;SDS011;72380;52.680;13.606;2024-03-25T11:11:30;1.00;;;0.90;;
8464;SDS011;72380;52.680;13.606;2024-03-25T11:13:58;0.80;;;0.80;;
8464;SDS011;72380;52.680;13.606;2024-03-25T11:16:28;0.60;;;0.60;;
8464;SDS011;72380;52.680;13.606;2024-03-25T11:18:55;1.17;;;1.07;;
8464;SDS011;72380;52.680;13.606;2024-03-25T11:21:24;0.97;;;0.97;;
8464;SDS011;72380;52.680;13.606;2024-03-25T11:23:51;3.07;;;1.10;;
8464;SDS011;72380;52.680;13.606;2024-03-25T11:26:18;1.67;;;1.17;;
8464;SDS011;72380;52.680;13.606;2024-03-25T11:28:45;1.53;;;1.30;;
8464;SDS011;72380;52.680;13.606;2024-03-25T11:31:12;1.30;;;1.20;;
8464;SDS011;72380;52.680;13.606;2024-03-25T11:33:39;2.43;;;1.37;;
8464;SDS011;72380;52.680;13.606;2024-03-25T11:36:06;1.43;;;1.30;;
8464;SDS011;72380;52.680;13.606;2024-03-25T11:38:32;2.50;;;1.50;;
8464;SDS011;72380;52.680;13.606;2024-03-25T11:40:59;3.10;;;1.40;;
8464;SDS011;72380;52.680;13.606;2024-03-25T11:43:26;6.20;;;1.87;;
8464;SDS011;72380;52.680;13.606;2024-03-25T11:45:52;1.57;;;1.20;;
8464;SDS011;72380;52.680;13.606;2024-03-25T11:48:20;3.23;;;1.50;;
8464;SDS011;72380;52.680;13.606;2024-03-25T11:50:47;1.40;;;1.30;;
8464;SDS011;72380;52.680;13.606;2024-03-25T11:53:13;1.90;;;1.17;;
8464;SDS011;72380;52.680;13.606;2024-03-25T11:55:40;1.90;;;1.50;;
8464;SDS011;72380;52.680;13.606;2024-03-25T11:58:07;1.57;;;1.20;;
8464;SDS011;72380;52.680;13.606;2024-03-25T12:00:33;1.23;;;1.13;;
8464;SDS011;72380;52.680;13.606;2024-03-25T12:03:00;6.40;;;1.70;;
8464;SDS011;72380;52.680;13.606;2024-03-25T12:05:28;1.10;;;1.00;;
8464;SDS011;72380;52.680;13.606;2024-03-25T12:07:54;3.77;;;1.67;;
8464;SDS011;72380;52.680;13.606;2024-03-25T12:10:21;2.27;;;1.47;;
8464;SDS011;72380;52.680;13.606;2024-03-25T12:13:07;1.27;;;1.17;;
8464;SDS011;72380;52.680;13.606;2024-03-25T12:15:34;3.43;;;1.03;;
8464;SDS011;72380;52.680;13.606;2024-03-25T12:18:00;3.73;;;1.00;;
8464;SDS011;72380;52.680;13.606;2024-03-25T12:20:28;2.50;;;1.60;;
8464;SDS011;72380;52.680;13.606;2024-03-25T12:22:55;1.87;;;1.70;;
8464;SDS011;72380;52.680;13.606;2024-03-25T12:25:21;1.60;;;1.30;;
8464;SDS011;72380;52.680;13.606;2024-03-25T12:27:48;1.43;;;1.33;;
8464;SDS011;72380;52.680;13.606;2024-03-25T12:30:14;1.23;;;1.10;;
8464;SDS011;72380;52.680;13.606;2024-03-25T12:32:41;1.67;;;1.30;;
8464;SDS011;72380;52.680;13.606;2024-03-25T12:35:08;2.90;;;1.23;;
8464;SDS011;72380;52.680;13.606;2024-03-25T12:37:37;2.73;;;1.00;;
8464;SDS011;72380;52.680;13.606;2024-03-25T12:40:05;1.60;;;1.30;;
8464;SDS011;72380;52.680;13.606;2024-03-25T12:42:31;3.93;;;1.50;;
8464;SDS011;72380;52.680;13.606;2024-03-25T12:44:58;1.27;;;1.20;;
8464;SDS011;72380;52.680;13.606;2024-03-25T12:47:25;3.03;;;1.40;;
8464;SDS011;72380;52.680;13.606;2024-03-25T12:49:51;1.47;;;1.43;;
8464;SDS011;72380;52.680;13.606;2024-03-25T12:52:17;2.97;;;1.43;;
8464;SDS011;72380;52.680;13.606;2024-03-25T12:54:45;2.60;;;1.57;;
8464;SDS011;72380;52.680;13.606;2024-03-25T12:57:12;3.13;;;1.10;;
8464;SDS011;72380;52.680;13.606;2024-03-25T12:59:38;2.80;;;1.30;;
8464;SDS011;72380;52.680;13.606;2024-03-25T13:02:05;1.87;;;1.77;;
8464;SDS011;72380;52.680;13.606;2024-03-25T13:04:34;1.20;;;1.10;;
8464;SDS011;72380;52.680;13.606;2024-03-25T13:07:01;1.30;;;1.20;;
8464;SDS011;72380;52.680;13.606;2024-03-25T13:09:27;3.37;;;1.30;;
8464;SDS011;72380;52.680;13.606;2024-03-25T13:11:55;0.90;;;0.90;;
8464;SDS011;72380;52.680;13.606;2024-03-25T13:14:21;4.30;;;1.07;;
8464;SDS011;72380;52.680;13.606;2024-03-25T13:16:48;1.03;;;0.93;;
8464;SDS011;72380;52.680;13.606;2024-03-25T13:19:14;0.97;;;0.77;;
8464;SDS011;72380;52.680;13.606;2024-03-25T13:21:41;7.40;;;1.10;;
8464;SDS011;72380;52.680;13.606;2024-03-25T13:24:07;1.50;;;0.90;;
8464;SDS011;72380;52.680;13.606;2024-03-25T13:26:34;0.93;;;0.80;;
8464;SDS011;72380;52.680;13.606;2024-03-25T13:29:01;1.43;;;1.17;;
8464;SDS011;72380;52.680;13.606;2024-03-25T13:31:28;0.80;;;0.80;;
8464;SDS011;72380;52.680;13.606;2024-03-25T13:33:54;1.17;;;1.07;;
8464;SDS011;72380;52.680;13.606;2024-03-25T13:36:21;0.90;;;0.90;;
8464;SDS011;72380;52.680;13.606;2024-03-25T13:38:47;1.10;;;1.00;;
8464;SDS011;72380;52.680;13.606;2024-03-25T13:41:14;1.03;;;1.03;;
8464;SDS011;72380;52.680;13.606;2024-03-25T13:43:41;0.60;;;0.60;;
8464;SDS011;72380;52.680;13.606;2024-03-25T13:46:09;0.83;;;0.77;;
8464;SDS011;72380;52.680;13.606;2024-03-25T13:48:36;1.37;;;1.27;;
8464;SDS011;72380;52.680;13.606;2024-03-25T13:51:02;1.27;;;1.10;;
8464;SDS011;72380;52.680;13.606;2024-03-25T13:53:29;1.87;;;1.07;;
8464;SDS011;72380;52.680;13.606;2024-03-25T13:55:55;2.20;;;0.93;;
8464;SDS011;72380;52.680;13.606;2024-03-25T13:58:22;0.83;;;0.83;;
8464;SDS011;72380;52.680;13.606;2024-03-25T14:00:48;0.80;;;0.80;;
8464;SDS011;72380;52.680;13.606;2024-03-25T14:03:16;3.03;;;1.67;;
8464;SDS011;72380;52.680;13.606;2024-03-25T14:05:42;0.90;;;0.90;;
8464;SDS011;72380;52.680;13.606;2024-03-25T14:08:09;1.30;;;1.20;;
8464;SDS011;72380;52.680;13.606;2024-03-25T14:10:35;1.30;;;1.20;;
8464;SDS011;72380;52.680;13.606;2024-03-25T14:13:02;2.50;;;1.00;;
8464;SDS011;72380;52.680;13.606;2024-03-25T14:15:28;4.97;;;1.10;;
8464;SDS011;72380;52.680;13.606;2024-03-25T14:17:55;1.17;;;0.93;;
8464;SDS011;72380;52.680;13.606;2024-03-25T14:20:29;1.80;;;1.03;;
8464;SDS011;72380;52.680;13.606;2024-03-25T14:22:56;1.30;;;1.20;;
8464;SDS011;72380;52.680;13.606;2024-03-25T14:25:22;1.07;;;1.00;;
8464;SDS011;72380;52.680;13.606;2024-03-25T14:27:49;0.90;;;0.90;;
8464;SDS011;72380;52.680;13.606;2024-03-25T14:30:15;0.70;;;0.70;;
8464;SDS011;72380;52.680;13.606;2024-03-25T14:32:42;3.83;;;1.33;;
8464;SDS011;72380;52.680;13.606;2024-03-25T14:35:08;3.00;;;0.87;;
8464;SDS011;72380;52.680;13.606;2024-03-25T14:37:36;1.10;;;1.00;;
8464;SDS011;72380;52.680;13.606;2024-03-25T14:40:03;1.93;;;0.87;;
8464;SDS011;72380;52.680;13.606;2024-03-25T14:42:29;2.13;;;1.23;;
8464;SDS011;72380;52.680;13.606;2024-03-25T14:44:56;0.80;;;0.80;;
8464;SDS011;72380;52.680;13.606;2024-03-25T14:47:22;2.20;;;0.90;;